sensor_id;sensor_type;location;lat;lon;timestamp;pressure;altitude;pressure_sealevel;temperature;humidity
27958;BME280;15295;42.658;23.374;2023-05-21T05:55:15;94374.81;;;20.60;51.65
27958;BME280;15295;42.658;23.374;2023-05-21T06:03:17;94420.34;;;21.13;49.52
27958;BME280;15295;42.658;23.374;2023-05-21T06:05:48;94401.22;;;21.15;49.93
27958;BME280;15295;42.658;23.374;2023-05-21T06:08:58;94377.78;;;21.07;48.79
27958;BME280;15295;42.658;23.374;2023-05-21T06:11:41;94386.56;;;21.38;48.77
27958;BME280;15295;42.658;23.374;2023-05-21T06:15:05;94403.44;;;21.68;46.52
27958;BME280;15295;42.658;23.374;2023-05-21T06:17:40;94385.97;;;21.67;45.23
27958;BME280;15295;42.658;23.374;2023-05-21T06:20:30;94386.97;;;21.79;44.30
27958;BME280;15295;42.658;23.374;2023-05-21T06:26:24;94373.63;;;21.92;44.36
27958;BME280;15295;42.658;23.374;2023-05-21T06:29:03;94363.28;;;22.07;43.47
27958;BME280;15295;42.658;23.374;2023-05-21T06:31:34;94400.63;;;22.53;43.08
27958;BME280;15295;42.658;23.374;2023-05-21T06:34:06;94354.91;;;22.45;42.77
27958;BME280;15295;42.658;23.374;2023-05-21T06:37:19;94407.75;;;23.13;43.95
27958;BME280;15295;42.658;23.374;2023-05-21T07:18:47;94399.00;;;23.20;40.31
27958;BME280;15295;42.658;23.374;2023-05-21T07:39:22;94385.47;;;23.62;39.46
27958;BME280;15295;42.658;23.374;2023-05-21T07:41:55;94391.00;;;23.76;38.52
27958;BME280;15295;42.658;23.374;2023-05-21T07:44:20;94386.03;;;23.66;38.48
27958;BME280;15295;42.658;23.374;2023-05-21T07:46:49;94400.28;;;23.88;38.05
27958;BME280;15295;42.658;23.374;2023-05-21T07:49:20;94374.63;;;23.84;37.81
27958;BME280;15295;42.658;23.374;2023-05-21T07:51:51;94379.13;;;24.02;37.62
27958;BME280;15295;42.658;23.374;2023-05-21T07:54:28;94361.16;;;24.03;36.69
27958;BME280;15295;42.658;23.374;2023-05-21T07:57:01;94368.91;;;24.33;36.07
27958;BME280;15295;42.658;23.374;2023-05-21T07:59:33;94380.91;;;24.65;35.47
27958;BME280;15295;42.658;23.374;2023-05-21T08:02:01;94337.53;;;24.44;33.93
27958;BME280;15295;42.658;23.374;2023-05-21T08:04:36;94359.16;;;24.49;33.16
27958;BME280;15295;42.658;23.374;2023-05-21T08:09:39;94379.91;;;24.68;31.90
27958;BME280;15295;42.658;23.374;2023-05-21T08:12:25;94387.91;;;24.75;31.77
27958;BME280;15295;42.658;23.374;2023-05-21T08:14:52;94351.16;;;24.62;31.43
27958;BME280;15295;42.658;23.374;2023-05-21T08:17:19;94394.25;;;25.01;31.76
27958;BME280;15295;42.658;23.374;2023-05-21T08:19:48;94361.91;;;24.95;31.30
27958;BME280;15295;42.658;23.374;2023-05-21T08:22:26;94382.84;;;25.05;30.96
27958;BME280;15295;42.658;23.374;2023-05-21T08:25:06;94377.88;;;25.20;31.80
27958;BME280;15295;42.658;23.374;2023-05-21T08:28:04;94384.38;;;25.37;30.82
27958;BME280;15295;42.658;23.374;2023-05-21T08:30:33;94344.75;;;25.13;30.92
27958;BME280;15295;42.658;23.374;2023-05-21T08:33:01;94382.91;;;25.42;30.46
27958;BME280;15295;42.658;23.374;2023-05-21T08:35:34;94371.78;;;25.21;31.53
27958;BME280;15295;42.658;23.374;2023-05-21T08:38:46;94377.13;;;24.94;33.06
27958;BME280;15295;42.658;23.374;2023-05-21T08:47:08;94357.31;;;24.92;32.27
27958;BME280;15295;42.658;23.374;2023-05-21T08:50:03;94388.44;;;25.36;32.48
27958;BME280;15295;42.658;23.374;2023-05-21T08:53:01;94381.75;;;25.59;31.30
27958;BME280;15295;42.658;23.374;2023-05-21T08:58:46;94350.78;;;25.68;30.71
27958;BME280;15295;42.658;23.374;2023-05-21T09:01:41;94375.75;;;25.77;30.84
27958;BME280;15295;42.658;23.374;2023-05-21T09:07:01;94385.84;;;25.64;31.42
27958;BME280;15295;42.658;23.374;2023-05-21T09:09:31;94398.50;;;25.54;31.77
27958;BME280;15295;42.658;23.374;2023-05-21T09:11:58;94387.09;;;25.57;32.01
27958;BME280;15295;42.658;23.374;2023-05-21T09:14:34;94397.88;;;25.75;31.10
27958;BME280;15295;42.658;23.374;2023-05-21T09:17:22;94405.75;;;25.71;30.52
27958;BME280;15295;42.658;23.374;2023-05-21T09:20:11;94403.03;;;25.88;30.60
27958;BME280;15295;42.658;23.374;2023-05-21T09:22:47;94400.97;;;26.25;30.75
27958;BME280;15295;42.658;23.374;2023-05-21T09:25:29;94400.91;;;26.20;30.08
27958;BME280;15295;42.658;23.374;2023-05-21T09:28:25;94355.75;;;25.95;29.19
27958;BME280;15295;42.658;23.374;2023-05-21T09:31:08;94399.91;;;26.17;28.98
27958;BME280;15295;42.658;23.374;2023-05-21T09:33:48;94411.38;;;26.19;27.44
27958;BME280;15295;42.658;23.374;2023-05-21T09:36:19;94389.41;;;26.07;27.89
27958;BME280;15295;42.658;23.374;2023-05-21T09:39:01;94380.78;;;26.16;27.90
27958;BME280;15295;42.658;23.374;2023-05-21T09:41:57;94398.47;;;26.44;27.16
27958;BME280;15295;42.658;23.374;2023-05-21T09:44:23;94382.69;;;26.41;27.50
27958;BME280;15295;42.658;23.374;2023-05-21T09:46:55;94387.47;;;26.24;27.70
27958;BME280;15295;42.658;23.374;2023-05-21T09:55:25;94353.94;;;26.62;27.29
27958;BME280;15295;42.658;23.374;2023-05-21T09:57:58;94379.50;;;27.03;26.18
27958;BME280;15295;42.658;23.374;2023-05-21T10:00:43;94386.41;;;27.13;26.24
27958;BME280;15295;42.658;23.374;2023-05-21T10:03:14;94354.28;;;26.92;25.45
27958;BME280;15295;42.658;23.374;2023-05-21T10:06:11;94383.63;;;27.13;24.95
27958;BME280;15295;42.658;23.374;2023-05-21T10:08:56;94378.28;;;27.26;26.11
27958;BME280;15295;42.658;23.374;2023-05-21T10:11:42;94342.28;;;26.75;26.16
27958;BME280;15295;42.658;23.374;2023-05-21T10:14:36;94379.28;;;27.23;26.30
27958;BME280;15295;42.658;23.374;2023-05-21T10:17:22;94376.47;;;27.23;25.93
27958;BME280;15295;42.658;23.374;2023-05-21T10:19:56;94322.91;;;26.94;26.06
27958;BME280;15295;42.658;23.374;2023-05-21T10:22:34;94343.06;;;26.92;26.04
27958;BME280;15295;42.658;23.374;2023-05-21T10:25:11;94362.19;;;26.99;25.57
27958;BME280;15295;42.658;23.374;2023-05-21T10:27:56;94330.50;;;26.71;26.54
27958;BME280;15295;42.658;23.374;2023-05-21T10:30:57;94348.31;;;26.62;26.26
27958;BME280;15295;42.658;23.374;2023-05-21T10:33:46;94360.88;;;26.78;27.19
27958;BME280;15295;42.658;23.374;2023-05-21T10:36:35;94331.22;;;26.44;27.08
27958;BME280;15295;42.658;23.374;2023-05-21T10:39:05;94322.59;;;26.53;27.52
27958;BME280;15295;42.658;23.374;2023-05-21T10:41:44;94359.63;;;26.96;27.11
27958;BME280;15295;42.658;23.374;2023-05-21T10:56:26;94316.41;;;26.27;28.52
27958;BME280;15295;42.658;23.374;2023-05-21T11:01:59;94320.13;;;26.01;28.27
27958;BME280;15295;42.658;23.374;2023-05-21T11:04:48;94316.53;;;25.95;29.05
27958;BME280;15295;42.658;23.374;2023-05-21T11:08:03;94327.31;;;26.08;28.86
27958;BME280;15295;42.658;23.374;2023-05-21T11:10:55;94306.84;;;25.96;28.58
27958;BME280;15295;42.658;23.374;2023-05-21T11:13:29;94333.44;;;26.12;28.83
27958;BME280;15295;42.658;23.374;2023-05-21T11:16:34;94327.81;;;26.12;28.43
27958;BME280;15295;42.658;23.374;2023-05-21T11:19:40;94299.78;;;26.07;29.08
27958;BME280;15295;42.658;23.374;2023-05-21T11:22:34;94305.69;;;26.20;28.37
27958;BME280;15295;42.658;23.374;2023-05-21T11:25:04;94319.97;;;26.22;29.15
27958;BME280;15295;42.658;23.374;2023-05-21T11:27:40;94318.44;;;26.26;29.00
27958;BME280;15295;42.658;23.374;2023-05-21T11:30:29;94338.34;;;26.34;28.57
27958;BME280;15295;42.658;23.374;2023-05-21T11:33:29;94286.75;;;25.92;29.23
27958;BME280;15295;42.658;23.374;2023-05-21T11:36:14;94307.19;;;26.10;28.96
27958;BME280;15295;42.658;23.374;2023-05-21T11:39:19;94325.59;;;26.22;29.20
27958;BME280;15295;42.658;23.374;2023-05-21T11:42:12;94336.50;;;26.20;29.06
27958;BME280;15295;42.658;23.374;2023-05-21T11:45:04;94287.97;;;25.80;28.98
27958;BME280;15295;42.658;23.374;2023-05-21T11:47:38;94338.78;;;26.16;29.36
27958;BME280;15295;42.658;23.374;2023-05-21T11:50:13;94299.75;;;25.95;29.19
27958;BME280;15295;42.658;23.374;2023-05-21T11:52:50;94316.03;;;26.02;29.37
27958;BME280;15295;42.658;23.374;2023-05-21T11:55:39;94326.00;;;26.03;29.32
27958;BME280;15295;42.658;23.374;2023-05-21T11:58:32;94322.41;;;25.97;29.96
27958;BME280;15295;42.658;23.374;2023-05-21T12:01:03;94321.63;;;25.97;29.64
27958;BME280;15295;42.658;23.374;2023-05-21T12:03:39;94309.59;;;25.74;29.58
27958;BME280;15295;42.658;23.374;2023-05-21T12:06:11;94302.69;;;25.70;29.76
27958;BME280;15295;42.658;23.374;2023-05-21T12:08:53;94287.59;;;25.51;30.46
27958;BME280;15295;42.658;23.374;2023-05-21T12:13:58;94305.44;;;25.64;31.11
27958;BME280;15295;42.658;23.374;2023-05-21T12:16:24;94311.84;;;25.70;30.81
27958;BME280;15295;42.658;23.374;2023-05-21T12:24:07;94270.19;;;25.41;31.81
27958;BME280;15295;42.658;23.374;2023-05-21T12:26:42;94305.41;;;25.53;32.65
27958;BME280;15295;42.658;23.374;2023-05-21T12:29:12;94278.75;;;25.26;32.62
27958;BME280;15295;42.658;23.374;2023-05-21T12:31:49;94282.34;;;25.27;33.16
27958;BME280;15295;42.658;23.374;2023-05-21T12:34:52;94277.50;;;25.27;33.05
27958;BME280;15295;42.658;23.374;2023-05-21T12:37:25;94314.28;;;25.52;32.89
27958;BME280;15295;42.658;23.374;2023-05-21T12:40:02;94304.78;;;25.38;33.14
27958;BME280;15295;42.658;23.374;2023-05-21T12:42:52;94306.75;;;25.32;33.32
27958;BME280;15295;42.658;23.374;2023-05-21T12:45:31;94277.50;;;25.27;33.52
27958;BME280;15295;42.658;23.374;2023-05-21T12:48:24;94273.44;;;25.28;33.20
27958;BME280;15295;42.658;23.374;2023-05-21T12:50:58;94266.81;;;25.26;32.95
27958;BME280;15295;42.658;23.374;2023-05-21T12:53:51;94286.56;;;25.48;32.87
27958;BME280;15295;42.658;23.374;2023-05-21T12:59:15;94296.78;;;25.62;32.75
27958;BME280;15295;42.658;23.374;2023-05-21T13:02:05;94295.03;;;25.65;32.97
27958;BME280;15295;42.658;23.374;2023-05-21T13:04:36;94262.09;;;25.43;31.90
27958;BME280;15295;42.658;23.374;2023-05-21T13:07:03;94270.53;;;25.54;32.37
27958;BME280;15295;42.658;23.374;2023-05-21T13:09:31;94292.78;;;25.74;32.30
27958;BME280;15295;42.658;23.374;2023-05-21T13:11:57;94261.91;;;25.58;31.83
27958;BME280;15295;42.658;23.374;2023-05-21T13:14:25;94288.19;;;25.71;31.83
27958;BME280;15295;42.658;23.374;2023-05-21T13:16:50;94284.13;;;25.72;32.19
27958;BME280;15295;42.658;23.374;2023-05-21T13:19:17;94267.03;;;25.65;31.74
27958;BME280;15295;42.658;23.374;2023-05-21T13:21:50;94274.75;;;25.81;32.79
27958;BME280;15295;42.658;23.374;2023-05-21T13:24:16;94254.84;;;25.73;32.10
27958;BME280;15295;42.658;23.374;2023-05-21T13:26:54;94256.16;;;25.83;32.12
27958;BME280;15295;42.658;23.374;2023-05-21T13:29:28;94261.03;;;25.94;31.91
27958;BME280;15295;42.658;23.374;2023-05-21T13:31:54;94258.00;;;25.97;31.28
27958;BME280;15295;42.658;23.374;2023-05-21T13:34:33;94284.81;;;26.21;31.47
27958;BME280;15295;42.658;23.374;2023-05-21T13:37:04;94236.63;;;26.06;31.43
27958;BME280;15295;42.658;23.374;2023-05-21T13:39:36;94274.13;;;26.25;31.00
27958;BME280;15295;42.658;23.374;2023-05-21T13:42:03;94281.50;;;26.22;31.18
27958;BME280;15295;42.658;23.374;2023-05-21T13:44:32;94259.28;;;26.08;31.36
27958;BME280;15295;42.658;23.374;2023-05-21T13:47:05;94285.31;;;26.14;31.39
27958;BME280;15295;42.658;23.374;2023-05-21T13:49:35;94248.31;;;25.98;31.12
27958;BME280;15295;42.658;23.374;2023-05-21T13:52:26;94255.19;;;25.97;31.24
27958;BME280;15295;42.658;23.374;2023-05-21T13:54:56;94251.38;;;25.89;31.82
27958;BME280;15295;42.658;23.374;2023-05-21T13:57:33;94275.84;;;26.00;32.25
27958;BME280;15295;42.658;23.374;2023-05-21T13:59:59;94274.28;;;25.93;32.40
27958;BME280;15295;42.658;23.374;2023-05-21T14:02:27;94255.88;;;25.70;33.09
27958;BME280;15295;42.658;23.374;2023-05-21T14:05:02;94246.91;;;25.61;33.33
27958;BME280;15295;42.658;23.374;2023-05-21T14:07:28;94238.25;;;25.53;33.42
27958;BME280;15295;42.658;23.374;2023-05-21T14:10:03;94267.09;;;25.81;33.37
27958;BME280;15295;42.658;23.374;2023-05-21T14:12:36;94251.59;;;25.80;33.41
27958;BME280;15295;42.658;23.374;2023-05-21T14:15:28;94262.06;;;25.96;33.56
27958;BME280;15295;42.658;23.374;2023-05-21T14:18:00;94229.72;;;25.84;33.38
27958;BME280;15295;42.658;23.374;2023-05-21T14:20:33;94272.06;;;26.14;33.49
27958;BME280;15295;42.658;23.374;2023-05-21T14:23:09;94252.72;;;26.11;33.30
27958;BME280;15295;42.658;23.374;2023-05-21T14:25:44;94241.97;;;26.03;33.58
27958;BME280;15295;42.658;23.374;2023-05-21T14:28:15;94249.38;;;26.07;33.75
27958;BME280;15295;42.658;23.374;2023-05-21T14:33:34;94267.28;;;26.26;33.16
27958;BME280;15295;42.658;23.374;2023-05-21T14:36:34;94263.97;;;26.27;32.96
27958;BME280;15295;42.658;23.374;2023-05-21T14:39:21;94260.63;;;26.12;33.26
27958;BME280;15295;42.658;23.374;2023-05-21T14:41:56;94272.38;;;26.22;33.34
27958;BME280;15295;42.658;23.374;2023-05-21T14:44:32;94261.41;;;26.24;33.75
27958;BME280;15295;42.658;23.374;2023-05-21T14:47:18;94266.75;;;26.27;33.75
27958;BME280;15295;42.658;23.374;2023-05-21T14:49:55;94255.47;;;26.05;33.70
27958;BME280;15295;42.658;23.374;2023-05-21T14:52:41;94282.75;;;26.16;33.82
27958;BME280;15295;42.658;23.374;2023-05-21T14:55:26;94275.13;;;26.11;33.77
27958;BME280;15295;42.658;23.374;2023-05-21T14:57:59;94275.66;;;26.15;33.67
27958;BME280;15295;42.658;23.374;2023-05-21T15:05:38;94230.66;;;25.59;33.00
27958;BME280;15295;42.658;23.374;2023-05-21T15:09:04;94245.94;;;25.69;33.20
27958;BME280;15295;42.658;23.374;2023-05-21T15:11:30;94242.09;;;25.61;33.30
27958;BME280;15295;42.658;23.374;2023-05-21T15:14:09;94249.47;;;25.64;33.59
27958;BME280;15295;42.658;23.374;2023-05-21T15:16:34;94224.47;;;25.44;33.46
27958;BME280;15295;42.658;23.374;2023-05-21T15:19:05;94260.66;;;25.64;33.26
27958;BME280;15295;42.658;23.374;2023-05-21T15:21:32;94240.50;;;25.44;32.74
27958;BME280;15295;42.658;23.374;2023-05-21T15:24:05;94262.41;;;25.51;32.87
27958;BME280;15295;42.658;23.374;2023-05-21T15:29:14;94260.63;;;25.53;32.80
27958;BME280;15295;42.658;23.374;2023-05-21T15:32:04;94262.09;;;25.43;32.86
27958;BME280;15295;42.658;23.374;2023-05-21T15:34:32;94282.00;;;25.56;32.55
27958;BME280;15295;42.658;23.374;2023-05-21T15:37:24;94266.69;;;25.46;32.35
27958;BME280;15295;42.658;23.374;2023-05-21T15:39:56;94281.28;;;25.61;32.67
27958;BME280;15295;42.658;23.374;2023-05-21T15:42:29;94283.75;;;25.48;32.71
27958;BME280;15295;42.658;23.374;2023-05-21T15:45:12;94266.34;;;25.33;32.91
27958;BME280;15295;42.658;23.374;2023-05-21T15:50:15;94265.28;;;25.25;32.99
27958;BME280;15295;42.658;23.374;2023-05-21T15:52:45;94295.72;;;25.12;32.14
27958;BME280;15295;42.658;23.374;2023-05-21T15:55:37;94266.78;;;24.84;32.42
27958;BME280;15295;42.658;23.374;2023-05-21T15:58:12;94238.19;;;24.69;32.30
27958;BME280;15295;42.658;23.374;2023-05-21T16:00:48;94254.84;;;24.58;32.79
27958;BME280;15295;42.658;23.374;2023-05-21T16:03:38;94275.84;;;24.47;32.87
27958;BME280;15295;42.658;23.374;2023-05-21T16:06:10;94274.31;;;24.21;33.13
27958;BME280;15295;42.658;23.374;2023-05-21T16:09:13;94289.16;;;24.07;33.76
27958;BME280;15295;42.658;23.374;2023-05-21T16:11:44;94242.34;;;23.76;34.05
27958;BME280;15295;42.658;23.374;2023-05-21T16:14:13;94312.44;;;24.04;34.23
27958;BME280;15295;42.658;23.374;2023-05-21T16:16:44;94257.56;;;23.75;34.30
27958;BME280;15295;42.658;23.374;2023-05-21T16:19:11;94242.38;;;23.36;34.61
27958;BME280;15295;42.658;23.374;2023-05-21T16:21:50;94279.03;;;23.49;34.67
27958;BME280;15295;42.658;23.374;2023-05-21T16:24:40;94291.59;;;23.79;34.60
27958;BME280;15295;42.658;23.374;2023-05-21T16:27:18;94277.94;;;23.41;34.86
27958;BME280;15295;42.658;23.374;2023-05-21T16:29:53;94284.38;;;23.32;35.21
27958;BME280;15295;42.658;23.374;2023-05-21T16:32:30;94274.25;;;23.15;35.31
27958;BME280;15295;42.658;23.374;2023-05-21T16:35:09;94299.22;;;23.24;35.30
27958;BME280;15295;42.658;23.374;2023-05-21T16:37:47;94279.03;;;22.94;35.53
27958;BME280;15295;42.658;23.374;2023-05-21T16:40:14;94247.81;;;22.90;35.27
27958;BME280;15295;42.658;23.374;2023-05-21T16:42:40;94301.22;;;23.23;35.39
27958;BME280;15295;42.658;23.374;2023-05-21T16:45:10;94321.72;;;23.20;35.50
27958;BME280;15295;42.658;23.374;2023-05-21T16:47:43;94310.59;;;23.06;36.27
27958;BME280;15295;42.658;23.374;2023-05-21T16:50:12;94241.66;;;22.86;36.06
27958;BME280;15295;42.658;23.374;2023-05-21T16:52:37;94303.91;;;23.32;36.06
27958;BME280;15295;42.658;23.374;2023-05-21T16:55:06;94328.56;;;23.54;36.93
27958;BME280;15295;42.658;23.374;2023-05-21T16:57:36;94279.31;;;23.31;36.22
27958;BME280;15295;42.658;23.374;2023-05-21T17:00:05;94308.66;;;23.46;35.88
27958;BME280;15295;42.658;23.374;2023-05-21T17:02:33;94287.06;;;23.27;35.72
27958;BME280;15295;42.658;23.374;2023-05-21T17:04:59;94310.00;;;23.51;35.54
27958;BME280;15295;42.658;23.374;2023-05-21T17:07:25;94347.97;;;23.83;35.19
27958;BME280;15295;42.658;23.374;2023-05-21T17:09:50;94328.78;;;23.70;35.72
27958;BME280;15295;42.658;23.374;2023-05-21T17:12:16;94342.31;;;23.77;35.46
27958;BME280;15295;42.658;23.374;2023-05-21T17:14:41;94325.44;;;23.66;35.88
27958;BME280;15295;42.658;23.374;2023-05-21T17:17:06;94331.00;;;23.66;35.87
27958;BME280;15295;42.658;23.374;2023-05-21T17:19:32;94329.34;;;23.74;35.69
27958;BME280;15295;42.658;23.374;2023-05-21T17:21:59;94339.72;;;23.74;35.65
27958;BME280;15295;42.658;23.374;2023-05-21T17:24:25;94336.66;;;23.72;36.04
27958;BME280;15295;42.658;23.374;2023-05-21T17:26:51;94324.59;;;23.60;35.99
27958;BME280;15295;42.658;23.374;2023-05-21T17:29:17;94350.81;;;23.68;36.26
27958;BME280;15295;42.658;23.374;2023-05-21T17:31:44;94324.50;;;23.55;36.66
27958;BME280;15295;42.658;23.374;2023-05-21T17:34:10;94338.59;;;23.66;36.22
27958;BME280;15295;42.658;23.374;2023-05-21T17:36:36;94344.69;;;23.64;36.81
27958;BME280;15295;42.658;23.374;2023-05-21T17:39:01;94316.13;;;23.55;38.48
27958;BME280;15295;42.658;23.374;2023-05-21T17:41:27;94345.13;;;23.77;37.78
27958;BME280;15295;42.658;23.374;2023-05-21T18:30:27;94350.34;;;22.86;38.22
27958;BME280;15295;42.658;23.374;2023-05-21T18:33:18;94383.06;;;23.06;38.52
27958;BME280;15295;42.658;23.374;2023-05-21T18:35:43;94364.94;;;22.81;38.59
27958;BME280;15295;42.658;23.374;2023-05-21T18:38:17;94370.50;;;22.81;38.79
27958;BME280;15295;42.658;23.374;2023-05-21T18:40:51;94389.59;;;22.73;39.27
27958;BME280;15295;42.658;23.374;2023-05-21T18:43:18;94382.13;;;22.65;39.15
27958;BME280;15295;42.658;23.374;2023-05-21T18:45:54;94392.22;;;22.62;39.20
27958;BME280;15295;42.658;23.374;2023-05-21T18:48:21;94408.28;;;22.58;39.76
27958;BME280;15295;42.658;23.374;2023-05-21T18:51:03;94406.78;;;22.57;40.42
27958;BME280;15295;42.658;23.374;2023-05-21T18:53:39;94394.09;;;22.56;40.07
27958;BME280;15295;42.658;23.374;2023-05-21T18:56:23;94417.00;;;22.60;39.73
27958;BME280;15295;42.658;23.374;2023-05-21T20:02:36;94423.59;;;21.77;41.99
27958;BME280;15295;42.658;23.374;2023-05-21T20:05:02;94420.50;;;21.75;42.18
27958;BME280;15295;42.658;23.374;2023-05-21T20:07:27;94429.94;;;21.78;42.32
27958;BME280;15295;42.658;23.374;2023-05-21T20:09:53;94417.44;;;21.73;42.50
27958;BME280;15295;42.658;23.374;2023-05-21T20:12:18;94404.34;;;21.65;42.51
27958;BME280;15295;42.658;23.374;2023-05-21T20:14:44;94424.25;;;21.72;42.87
27958;BME280;15295;42.658;23.374;2023-05-21T20:17:12;94424.72;;;21.71;43.41
27958;BME280;15295;42.658;23.374;2023-05-21T20:19:37;94413.47;;;21.65;43.19
27958;BME280;15295;42.658;23.374;2023-05-21T20:22:03;94422.88;;;21.68;43.36
27958;BME280;15295;42.658;23.374;2023-05-21T20:24:29;94426.59;;;21.65;43.30
27958;BME280;15295;42.658;23.374;2023-05-21T20:26:54;94429.28;;;21.59;43.58
27958;BME280;15295;42.658;23.374;2023-05-21T20:29:20;94418.69;;;21.48;43.39
27958;BME280;15295;42.658;23.374;2023-05-21T20:31:45;94373.72;;;21.17;43.84
27958;BME280;15295;42.658;23.374;2023-05-21T20:34:20;94407.78;;;21.36;43.96
27958;BME280;15295;42.658;23.374;2023-05-21T20:36:45;94428.94;;;21.33;43.94
27958;BME280;15295;42.658;23.374;2023-05-21T20:39:11;94420.75;;;21.30;43.62
27958;BME280;15295;42.658;23.374;2023-05-21T20:41:37;94421.22;;;21.28;43.86
27958;BME280;15295;42.658;23.374;2023-05-21T20:44:03;94424.47;;;21.27;44.53
27958;BME280;15295;42.658;23.374;2023-05-21T20:46:33;94414.66;;;21.17;44.38
27958;BME280;15295;42.658;23.374;2023-05-21T20:49:04;94425.63;;;21.11;44.30
27958;BME280;15295;42.658;23.374;2023-05-21T20:51:30;94413.59;;;21.05;44.67
27958;BME280;15295;42.658;23.374;2023-05-21T20:53:56;94416.09;;;21.03;44.71
27958;BME280;15295;42.658;23.374;2023-05-21T20:56:23;94424.72;;;21.05;44.59
27958;BME280;15295;42.658;23.374;2023-05-21T20:58:58;94427.19;;;21.03;44.78
27958;BME280;15295;42.658;23.374;2023-05-21T21:01:24;94407.91;;;20.91;45.00
27958;BME280;15295;42.658;23.374;2023-05-21T21:03:49;94426.41;;;20.94;44.79
27958;BME280;15295;42.658;23.374;2023-05-21T21:06:17;94438.28;;;20.94;45.00
27958;BME280;15295;42.658;23.374;2023-05-21T21:08:42;94418.72;;;20.89;45.09
27958;BME280;15295;42.658;23.374;2023-05-21T21:11:14;94432.44;;;20.92;45.10
27958;BME280;15295;42.658;23.374;2023-05-21T21:13:45;94423.50;;;20.88;45.51
27958;BME280;15295;42.658;23.374;2023-05-21T21:16:10;94426.75;;;20.87;45.30
27958;BME280;15295;42.658;23.374;2023-05-21T21:18:36;94431.53;;;20.86;45.66
27958;BME280;15295;42.658;23.374;2023-05-21T21:21:01;94394.25;;;20.60;45.61
27958;BME280;15295;42.658;23.374;2023-05-21T21:26:33;94423.53;;;20.70;45.62
27958;BME280;15295;42.658;23.374;2023-05-21T21:29:00;94433.13;;;20.69;46.05
27958;BME280;15295;42.658;23.374;2023-05-21T21:31:25;94429.25;;;20.66;45.70
27958;BME280;15295;42.658;23.374;2023-05-21T21:33:51;94429.72;;;20.65;45.95
27958;BME280;15295;42.658;23.374;2023-05-21T21:36:16;94420.50;;;20.59;46.08
27958;BME280;15295;42.658;23.374;2023-05-21T21:38:42;94437.75;;;20.63;45.98
27958;BME280;15295;42.658;23.374;2023-05-21T21:41:07;94432.03;;;20.57;46.13
27958;BME280;15295;42.658;23.374;2023-05-21T21:43:34;94421.72;;;20.49;46.40
27958;BME280;15295;42.658;23.374;2023-05-21T21:46:01;94424.06;;;20.50;46.73
27958;BME280;15295;42.658;23.374;2023-05-21T21:48:27;94419.28;;;20.42;46.84
27958;BME280;15295;42.658;23.374;2023-05-21T21:50:52;94429.13;;;20.43;46.64
27958;BME280;15295;42.658;23.374;2023-05-21T21:53:20;94421.28;;;20.41;46.86
27958;BME280;15295;42.658;23.374;2023-05-21T21:55:45;94432.84;;;20.40;46.91
27958;BME280;15295;42.658;23.374;2023-05-21T21:58:11;94423.91;;;20.36;46.70
27958;BME280;15295;42.658;23.374;2023-05-21T22:00:36;94418.38;;;20.27;47.12
27958;BME280;15295;42.658;23.374;2023-05-21T22:03:01;94417.75;;;20.23;47.13
27958;BME280;15295;42.658;23.374;2023-05-21T22:05:54;94428.53;;;20.30;47.19
27958;BME280;15295;42.658;23.374;2023-05-21T22:08:19;94423.59;;;20.25;47.36
27958;BME280;15295;42.658;23.374;2023-05-21T22:10:45;94432.25;;;20.27;47.20
27958;BME280;15295;42.658;23.374;2023-05-21T22:13:11;94432.69;;;20.25;47.50
27958;BME280;15295;42.658;23.374;2023-05-21T22:18:56;94419.28;;;20.24;47.31
27958;BME280;15295;42.658;23.374;2023-05-21T22:21:23;94414.03;;;20.26;47.02
27958;BME280;15295;42.658;23.374;2023-05-21T22:23:53;94415.91;;;20.29;47.24
27958;BME280;15295;42.658;23.374;2023-05-21T22:26:18;94407.41;;;20.23;46.87
27958;BME280;15295;42.658;23.374;2023-05-21T22:28:44;94408.19;;;20.24;47.05
27958;BME280;15295;42.658;23.374;2023-05-21T22:31:09;94413.59;;;20.27;46.99
27958;BME280;15295;42.658;23.374;2023-05-21T22:33:35;94411.72;;;20.33;47.35
27958;BME280;15295;42.658;23.374;2023-05-21T22:36:13;94415.41;;;20.30;47.52
27958;BME280;15295;42.658;23.374;2023-05-21T22:41:12;94398.78;;;20.21;47.25
27958;BME280;15295;42.658;23.374;2023-05-21T22:43:38;94395.25;;;20.21;47.22
27958;BME280;15295;42.658;23.374;2023-05-21T22:46:13;94396.13;;;20.18;47.41
27958;BME280;15295;42.658;23.374;2023-05-21T22:48:38;94390.44;;;20.21;47.49
27958;BME280;15295;42.658;23.374;2023-05-21T22:51:06;94390.75;;;20.14;47.77
27958;BME280;15295;42.658;23.374;2023-05-21T22:53:32;94402.00;;;20.20;47.75
27958;BME280;15295;42.658;23.374;2023-05-21T22:55:58;94396.13;;;20.18;47.77
27958;BME280;15295;42.658;23.374;2023-05-21T22:58:24;94377.03;;;20.02;47.95
27958;BME280;15295;42.658;23.374;2023-05-21T23:00:49;94389.97;;;20.05;48.12
27958;BME280;15295;42.658;23.374;2023-05-21T23:03:14;94400.91;;;20.08;48.35
27958;BME280;15295;42.658;23.374;2023-05-21T23:05:40;94402.00;;;20.02;48.58
27958;BME280;15295;42.658;23.374;2023-05-21T23:08:06;94395.19;;;19.93;48.51
27958;BME280;15295;42.658;23.374;2023-05-21T23:10:32;94388.13;;;19.83;48.77
27958;BME280;15295;42.658;23.374;2023-05-21T23:12:57;94391.97;;;19.77;49.08
27958;BME280;15295;42.658;23.374;2023-05-21T23:15:23;94390.88;;;19.74;49.16
27958;BME280;15295;42.658;23.374;2023-05-21T23:17:48;94374.53;;;19.58;49.14
27958;BME280;15295;42.658;23.374;2023-05-21T23:20:14;94364.03;;;19.53;49.05
27958;BME280;15295;42.658;23.374;2023-05-21T23:22:39;94383.50;;;19.71;48.96
27958;BME280;15295;42.658;23.374;2023-05-21T23:25:06;94388.41;;;19.67;49.11
27958;BME280;15295;42.658;23.374;2023-05-21T23:27:34;94373.59;;;19.61;49.37